sensor_id;sensor_type;location;lat;lon;timestamp;pressure;altitude;pressure_sealevel;temperature;humidity
71567;BME280;59403;47.456;19.120;2023-04-28T00:01:29;100933.78;;;5.64;87.11
71567;BME280;59403;47.456;19.120;2023-04-28T00:03:56;100936.41;;;5.64;87.09
71567;BME280;59403;47.456;19.120;2023-04-28T00:06:26;100929.63;;;5.49;87.52
71567;BME280;59403;47.456;19.120;2023-04-28T00:08:53;100928.59;;;5.52;86.79
71567;BME280;59403;47.456;19.120;2023-04-28T00:11:20;100931.87;;;5.43;87.39
71567;BME280;59403;47.456;19.120;2023-04-28T00:13:47;100923.38;;;5.39;87.59
71567;BME280;59403;47.456;19.120;2023-04-28T00:16:13;100927.59;;;5.42;87.63
71567;BME280;59403;47.456;19.120;2023-04-28T00:18:40;100929.09;;;5.33;88.07
71567;BME280;59403;47.456;19.120;2023-04-28T00:21:07;100929.19;;;5.32;87.88
71567;BME280;59403;47.456;19.120;2023-04-28T00:23:36;100928.37;;;5.31;88.03
71567;BME280;59403;47.456;19.120;2023-04-28T00:26:02;100919.69;;;5.18;88.99
71567;BME280;59403;47.456;19.120;2023-04-28T00:28:29;100916.66;;;5.12;88.97
71567;BME280;59403;47.456;19.120;2023-04-28T00:30:56;100922.66;;;5.01;90.15
71567;BME280;59403;47.456;19.120;2023-04-28T00:33:23;100919.53;;;4.96;90.63
71567;BME280;59403;47.456;19.120;2023-04-28T00:35:58;100920.41;;;4.84;91.14
71567;BME280;59403;47.456;19.120;2023-04-28T00:38:25;100925.00;;;4.93;90.66
71567;BME280;59403;47.456;19.120;2023-04-28T00:40:53;100928.16;;;4.98;90.94
71567;BME280;59403;47.456;19.120;2023-04-28T00:43:20;100914.16;;;4.98;90.87
71567;BME280;59403;47.456;19.120;2023-04-28T00:45:48;100909.69;;;4.87;91.71
71567;BME280;59403;47.456;19.120;2023-04-28T00:48:15;100905.91;;;4.79;92.66
71567;BME280;59403;47.456;19.120;2023-04-28T00:50:42;100908.25;;;4.71;93.34
71567;BME280;59403;47.456;19.120;2023-04-28T00:53:10;100910.78;;;4.72;92.74
71567;BME280;59403;47.456;19.120;2023-04-28T00:55:38;100912.94;;;4.78;91.86
71567;BME280;59403;47.456;19.120;2023-04-28T00:58:07;100911.06;;;4.80;92.11
71567;BME280;59403;47.456;19.120;2023-04-28T01:00:35;100914.13;;;4.74;92.92
71567;BME280;59403;47.456;19.120;2023-04-28T01:03:02;100917.78;;;4.72;93.58
71567;BME280;59403;47.456;19.120;2023-04-28T01:05:29;100920.81;;;4.78;93.36
71567;BME280;59403;47.456;19.120;2023-04-28T01:07:56;100921.44;;;4.82;92.59
71567;BME280;59403;47.456;19.120;2023-04-28T01:10:23;100927.66;;;4.68;93.09
71567;BME280;59403;47.456;19.120;2023-04-28T01:12:50;100917.06;;;4.57;93.16
71567;BME280;59403;47.456;19.120;2023-04-28T01:15:19;100921.69;;;4.53;92.98
71567;BME280;59403;47.456;19.120;2023-04-28T01:17:46;100930.09;;;4.58;93.57
71567;BME280;59403;47.456;19.120;2023-04-28T01:20:13;100925.47;;;4.49;94.51
71567;BME280;59403;47.456;19.120;2023-04-28T01:22:40;100927.53;;;4.57;93.37
71567;BME280;59403;47.456;19.120;2023-04-28T01:25:09;100935.97;;;4.49;94.10
71567;BME280;59403;47.456;19.120;2023-04-28T01:27:36;100925.56;;;4.60;93.36
71567;BME280;59403;47.456;19.120;2023-04-28T01:30:03;100930.50;;;4.52;95.01
71567;BME280;59403;47.456;19.120;2023-04-28T01:32:31;100924.94;;;4.57;93.67
71567;BME280;59403;47.456;19.120;2023-04-28T01:34:57;100931.53;;;4.62;93.65
71567;BME280;59403;47.456;19.120;2023-04-28T01:37:24;100936.69;;;4.64;93.68
71567;BME280;59403;47.456;19.120;2023-04-28T01:39:51;100933.66;;;4.57;93.37
71567;BME280;59403;47.456;19.120;2023-04-28T01:42:19;100929.53;;;4.53;93.90
71567;BME280;59403;47.456;19.120;2023-04-28T01:44:47;100931.97;;;4.44;94.41
71567;BME280;59403;47.456;19.120;2023-04-28T01:47:14;100927.34;;;4.35;94.74
71567;BME280;59403;47.456;19.120;2023-04-28T01:49:41;100916.88;;;4.35;94.44
71567;BME280;59403;47.456;19.120;2023-04-28T01:52:08;100912.97;;;4.28;95.25
71567;BME280;59403;47.456;19.120;2023-04-28T01:54:35;100919.28;;;4.25;95.27
71567;BME280;59403;47.456;19.120;2023-04-28T01:57:02;100913.31;;;4.23;95.96
71567;BME280;59403;47.456;19.120;2023-04-28T01:59:30;100921.28;;;4.22;95.90
71567;BME280;59403;47.456;19.120;2023-04-28T02:01:57;100921.37;;;4.20;96.62
71567;BME280;59403;47.456;19.120;2023-04-28T02:04:24;100927.34;;;4.22;96.56
71567;BME280;59403;47.456;19.120;2023-04-28T02:06:50;100929.03;;;4.23;96.27
71567;BME280;59403;47.456;19.120;2023-04-28T02:09:17;100930.59;;;4.26;96.73
71567;BME280;59403;47.456;19.120;2023-04-28T02:11:44;100934.50;;;4.20;95.77
71567;BME280;59403;47.456;19.120;2023-04-28T02:14:11;100940.25;;;4.13;95.98
71567;BME280;59403;47.456;19.120;2023-04-28T02:16:39;100933.09;;;4.02;97.33
71567;BME280;59403;47.456;19.120;2023-04-28T02:19:06;100932.97;;;4.04;96.97
71567;BME280;59403;47.456;19.120;2023-04-28T02:21:33;100929.34;;;4.06;97.16
71567;BME280;59403;47.456;19.120;2023-04-28T02:24:00;100935.09;;;4.11;96.47
71567;BME280;59403;47.456;19.120;2023-04-28T02:26:27;100935.91;;;4.12;96.45
71567;BME280;59403;47.456;19.120;2023-04-28T02:28:54;100931.63;;;4.11;97.08
71567;BME280;59403;47.456;19.120;2023-04-28T02:31:21;100937.91;;;4.08;96.77
71567;BME280;59403;47.456;19.120;2023-04-28T02:33:49;100938.00;;;4.07;96.80
71567;BME280;59403;47.456;19.120;2023-04-28T02:36:17;100938.66;;;4.10;96.30
71567;BME280;59403;47.456;19.120;2023-04-28T02:38:44;100933.94;;;4.15;96.00
71567;BME280;59403;47.456;19.120;2023-04-28T02:41:11;100935.63;;;4.16;95.92
71567;BME280;59403;47.456;19.120;2023-04-28T02:43:39;100934.56;;;4.19;95.53
71567;BME280;59403;47.456;19.120;2023-04-28T02:46:06;100934.88;;;4.14;96.87
71567;BME280;59403;47.456;19.120;2023-04-28T02:48:33;100935.75;;;4.15;96.79
71567;BME280;59403;47.456;19.120;2023-04-28T02:51:03;100936.88;;;4.11;96.17
71567;BME280;59403;47.456;19.120;2023-04-28T02:53:30;100938.53;;;4.12;95.83
71567;BME280;59403;47.456;19.120;2023-04-28T02:55:57;100947.03;;;4.03;96.87
71567;BME280;59403;47.456;19.120;2023-04-28T02:58:24;100944.59;;;4.00;96.40
71567;BME280;59403;47.456;19.120;2023-04-28T03:00:51;100940.81;;;3.91;96.64
71567;BME280;59403;47.456;19.120;2023-04-28T03:03:18;100938.19;;;3.91;96.86
71567;BME280;59403;47.456;19.120;2023-04-28T03:05:45;100941.56;;;3.93;96.87
71567;BME280;59403;47.456;19.120;2023-04-28T03:08:13;100939.16;;;3.90;96.47
71567;BME280;59403;47.456;19.120;2023-04-28T03:10:40;100939.34;;;3.87;97.60
71567;BME280;59403;47.456;19.120;2023-04-28T03:13:07;100947.94;;;3.89;97.01
71567;BME280;59403;47.456;19.120;2023-04-28T03:15:34;100944.50;;;3.89;96.95
71567;BME280;59403;47.456;19.120;2023-04-28T03:18:01;100957.81;;;3.86;97.70
71567;BME280;59403;47.456;19.120;2023-04-28T03:20:28;100957.81;;;3.86;97.45
71567;BME280;59403;47.456;19.120;2023-04-28T03:22:54;100950.75;;;3.86;97.69
71567;BME280;59403;47.456;19.120;2023-04-28T03:25:23;100966.69;;;3.83;97.68
71567;BME280;59403;47.456;19.120;2023-04-28T03:27:50;100966.78;;;3.82;97.81
71567;BME280;59403;47.456;19.120;2023-04-28T03:30:16;100966.69;;;3.83;98.53
71567;BME280;59403;47.456;19.120;2023-04-28T03:32:43;100972.66;;;3.85;98.21
71567;BME280;59403;47.456;19.120;2023-04-28T03:35:10;100974.84;;;3.79;98.26
71567;BME280;59403;47.456;19.120;2023-04-28T03:37:38;100973.38;;;3.75;98.53
71567;BME280;59403;47.456;19.120;2023-04-28T03:40:06;100967.00;;;3.79;97.92
71567;BME280;59403;47.456;19.120;2023-04-28T03:42:34;100971.03;;;3.70;98.30
71567;BME280;59403;47.456;19.120;2023-04-28T03:45:01;100964.59;;;3.62;98.67
71567;BME280;59403;47.456;19.120;2023-04-28T03:47:28;100966.34;;;3.75;98.22
71567;BME280;59403;47.456;19.120;2023-04-28T03:49:55;100967.19;;;3.76;98.60
71567;BME280;59403;47.456;19.120;2023-04-28T03:52:23;100962.72;;;3.90;97.93
71567;BME280;59403;47.456;19.120;2023-04-28T03:54:50;100956.34;;;3.94;97.45
71567;BME280;59403;47.456;19.120;2023-04-28T03:57:17;100965.16;;;4.06;96.68
71567;BME280;59403;47.456;19.120;2023-04-28T03:59:45;100964.22;;;4.07;96.41
71567;BME280;59403;47.456;19.120;2023-04-28T04:02:12;100962.97;;;4.12;96.36
71567;BME280;59403;47.456;19.120;2023-04-28T04:04:39;100969.91;;;4.13;96.88
71567;BME280;59403;47.456;19.120;2023-04-28T04:07:06;100970.72;;;4.14;96.79
71567;BME280;59403;47.456;19.120;2023-04-28T04:09:33;100975.59;;;4.20;96.93
71567;BME280;59403;47.456;19.120;2023-04-28T04:12:00;100985.34;;;4.30;95.94
71567;BME280;59403;47.456;19.120;2023-04-28T04:14:27;100978.94;;;4.34;96.26
71567;BME280;59403;47.456;19.120;2023-04-28T04:16:56;100986.41;;;4.40;96.52
71567;BME280;59403;47.456;19.120;2023-04-28T04:19:22;100978.12;;;4.46;96.62
71567;BME280;59403;47.456;19.120;2023-04-28T04:21:51;100977.81;;;4.51;95.72
71567;BME280;59403;47.456;19.120;2023-04-28T04:24:17;100970.38;;;4.57;95.73
71567;BME280;59403;47.456;19.120;2023-04-28T04:26:44;100971.72;;;4.63;95.52
71567;BME280;59403;47.456;19.120;2023-04-28T04:29:11;100982.22;;;4.63;96.17
71567;BME280;59403;47.456;19.120;2023-04-28T04:31:38;100976.88;;;4.77;95.00
71567;BME280;59403;47.456;19.120;2023-04-28T04:34:06;100982.41;;;4.85;95.15
71567;BME280;59403;47.456;19.120;2023-04-28T04:36:33;100985.38;;;4.93;93.92
71567;BME280;59403;47.456;19.120;2023-04-28T04:39:00;100983.66;;;5.05;93.64
71567;BME280;59403;47.456;19.120;2023-04-28T04:41:27;100989.19;;;5.13;93.80
71567;BME280;59403;47.456;19.120;2023-04-28T04:43:54;100984.38;;;5.19;92.69
71567;BME280;59403;47.456;19.120;2023-04-28T04:46:21;100988.06;;;5.40;92.07
71567;BME280;59403;47.456;19.120;2023-04-28T04:48:48;100984.06;;;5.47;90.64
71567;BME280;59403;47.456;19.120;2023-04-28T04:51:16;100978.00;;;5.47;89.49
71567;BME280;59403;47.456;19.120;2023-04-28T04:53:43;100989.13;;;5.74;89.34
71567;BME280;59403;47.456;19.120;2023-04-28T04:56:10;100993.22;;;6.02;87.07
71567;BME280;59403;47.456;19.120;2023-04-28T04:58:37;100982.53;;;6.16;85.69
71567;BME280;59403;47.456;19.120;2023-04-28T05:01:04;100984.44;;;6.14;85.20
71567;BME280;59403;47.456;19.120;2023-04-28T05:03:31;100990.22;;;6.30;84.14
71567;BME280;59403;47.456;19.120;2023-04-28T05:05:58;100984.41;;;6.37;84.00
71567;BME280;59403;47.456;19.120;2023-04-28T05:08:27;100980.56;;;6.41;83.61
71567;BME280;59403;47.456;19.120;2023-04-28T05:10:54;100978.16;;;6.38;82.19
71567;BME280;59403;47.456;19.120;2023-04-28T05:13:22;100984.56;;;6.69;80.44
71567;BME280;59403;47.456;19.120;2023-04-28T05:15:49;100986.50;;;6.89;79.30
71567;BME280;59403;47.456;19.120;2023-04-28T05:18:16;100982.66;;;7.04;79.15
71567;BME280;59403;47.456;19.120;2023-04-28T05:20:42;100990.78;;;7.45;77.85
71567;BME280;59403;47.456;19.120;2023-04-28T05:23:09;100981.78;;;7.37;77.21
71567;BME280;59403;47.456;19.120;2023-04-28T05:25:38;100992.44;;;7.35;77.86
71567;BME280;59403;47.456;19.120;2023-04-28T05:28:08;100992.44;;;7.35;78.89
71567;BME280;59403;47.456;19.120;2023-04-28T05:30:35;101004.56;;;7.27;77.58
71567;BME280;59403;47.456;19.120;2023-04-28T05:33:02;101000.00;;;7.40;77.95
71567;BME280;59403;47.456;19.120;2023-04-28T05:35:28;100999.16;;;7.50;77.81
71567;BME280;59403;47.456;19.120;2023-04-28T05:37:56;100999.63;;;7.55;78.04
71567;BME280;59403;47.456;19.120;2023-04-28T05:40:23;101003.44;;;7.51;77.82
71567;BME280;59403;47.456;19.120;2023-04-28T05:42:52;100996.41;;;7.41;74.27
71567;BME280;59403;47.456;19.120;2023-04-28T05:45:19;100996.72;;;7.58;74.79
71567;BME280;59403;47.456;19.120;2023-04-28T05:47:45;100999.91;;;7.84;72.68
71567;BME280;59403;47.456;19.120;2023-04-28T05:50:12;100993.00;;;8.03;71.37
71567;BME280;59403;47.456;19.120;2023-04-28T05:52:39;100991.59;;;8.31;69.83
71567;BME280;59403;47.456;19.120;2023-04-28T05:55:07;100997.31;;;8.57;68.45
71567;BME280;59403;47.456;19.120;2023-04-28T05:57:34;100988.12;;;8.81;68.54
71567;BME280;59403;47.456;19.120;2023-04-28T06:00:03;101001.22;;;9.13;68.51
71567;BME280;59403;47.456;19.120;2023-04-28T06:02:30;100996.16;;;9.31;68.05
71567;BME280;59403;47.456;19.120;2023-04-28T06:04:57;101000.38;;;9.52;67.89
71567;BME280;59403;47.456;19.120;2023-04-28T06:07:24;100998.81;;;9.40;67.31
71567;BME280;59403;47.456;19.120;2023-04-28T06:09:51;101004.72;;;9.13;67.14
71567;BME280;59403;47.456;19.120;2023-04-28T06:12:17;101007.13;;;8.96;68.49
71567;BME280;59403;47.456;19.120;2023-04-28T06:14:44;100997.03;;;8.80;67.23
71567;BME280;59403;47.456;19.120;2023-04-28T06:17:13;101004.66;;;8.74;68.18
71567;BME280;59403;47.456;19.120;2023-04-28T06:19:40;101002.44;;;9.09;67.63
71567;BME280;59403;47.456;19.120;2023-04-28T06:22:07;101006.72;;;9.31;64.51
71567;BME280;59403;47.456;19.120;2023-04-28T06:24:34;101004.56;;;9.55;65.78
71567;BME280;59403;47.456;19.120;2023-04-28T06:27:01;101001.25;;;9.62;64.94
71567;BME280;59403;47.456;19.120;2023-04-28T06:29:28;101007.94;;;9.85;62.80
71567;BME280;59403;47.456;19.120;2023-04-28T06:31:55;101013.41;;;10.03;63.21
71567;BME280;59403;47.456;19.120;2023-04-28T06:34:25;101013.63;;;9.71;60.79
71567;BME280;59403;47.456;19.120;2023-04-28T06:36:53;101012.69;;;9.72;62.29
71567;BME280;59403;47.456;19.120;2023-04-28T06:39:20;101006.72;;;9.89;60.17
71567;BME280;59403;47.456;19.120;2023-04-28T06:41:47;101011.38;;;10.16;60.76
71567;BME280;59403;47.456;19.120;2023-04-28T06:44:14;101012.19;;;10.16;59.87
71567;BME280;59403;47.456;19.120;2023-04-28T06:46:41;101012.75;;;10.29;62.06
71567;BME280;59403;47.456;19.120;2023-04-28T06:49:08;101010.09;;;10.29;60.84
71567;BME280;59403;47.456;19.120;2023-04-28T06:51:36;101003.69;;;10.42;60.21
71567;BME280;59403;47.456;19.120;2023-04-28T06:54:03;101010.50;;;10.54;59.50
71567;BME280;59403;47.456;19.120;2023-04-28T06:56:31;101014.25;;;10.61;60.90
71567;BME280;59403;47.456;19.120;2023-04-28T06:58:58;101016.34;;;10.67;59.98
71567;BME280;59403;47.456;19.120;2023-04-28T07:01:24;101013.91;;;10.83;59.25
71567;BME280;59403;47.456;19.120;2023-04-28T07:03:51;101007.25;;;10.79;58.53
71567;BME280;59403;47.456;19.120;2023-04-28T07:06:18;101004.50;;;11.07;58.54
71567;BME280;59403;47.456;19.120;2023-04-28T07:08:47;101000.22;;;10.97;57.00
71567;BME280;59403;47.456;19.120;2023-04-28T07:11:13;100996.31;;;11.01;57.73
71567;BME280;59403;47.456;19.120;2023-04-28T07:13:41;100995.34;;;11.29;58.97
71567;BME280;59403;47.456;19.120;2023-04-28T07:16:07;100996.59;;;11.34;58.36
71567;BME280;59403;47.456;19.120;2023-04-28T07:18:35;101003.41;;;11.37;56.35
71567;BME280;59403;47.456;19.120;2023-04-28T07:21:02;100991.75;;;11.75;56.03
71567;BME280;59403;47.456;19.120;2023-04-28T07:23:29;100996.19;;;12.19;55.74
71567;BME280;59403;47.456;19.120;2023-04-28T07:25:58;100986.97;;;12.48;55.91
71567;BME280;59403;47.456;19.120;2023-04-28T07:28:25;100986.94;;;12.92;54.20
71567;BME280;59403;47.456;19.120;2023-04-28T07:30:52;100993.69;;;12.17;51.29
71567;BME280;59403;47.456;19.120;2023-04-28T07:33:19;100996.03;;;12.20;53.85
71567;BME280;59403;47.456;19.120;2023-04-28T07:35:46;100985.47;;;11.76;52.79
71567;BME280;59403;47.456;19.120;2023-04-28T07:38:14;100987.62;;;12.07;54.15
71567;BME280;59403;47.456;19.120;2023-04-28T07:40:41;100989.66;;;12.31;53.52
71567;BME280;59403;47.456;19.120;2023-04-28T07:43:13;100986.56;;;12.61;56.47
71567;BME280;59403;47.456;19.120;2023-04-28T07:45:43;100951.06;;;12.70;53.36
71567;BME280;59403;47.456;19.120;2023-04-28T07:48:13;100984.69;;;12.79;49.54
71567;BME280;59403;47.456;19.120;2023-04-28T07:50:40;100968.13;;;12.85;51.23
71567;BME280;59403;47.456;19.120;2023-04-28T07:53:10;100982.94;;;13.13;51.42
71567;BME280;59403;47.456;19.120;2023-04-28T07:55:37;100976.66;;;12.97;49.32
71567;BME280;59403;47.456;19.120;2023-04-28T07:58:06;100969.94;;;12.59;49.01
71567;BME280;59403;47.456;19.120;2023-04-28T08:00:34;100958.75;;;12.73;49.30
71567;BME280;59403;47.456;19.120;2023-04-28T08:03:02;100939.41;;;12.89;50.03
71567;BME280;59403;47.456;19.120;2023-04-28T08:05:29;100959.53;;;13.25;48.77
71567;BME280;59403;47.456;19.120;2023-04-28T08:07:59;100953.25;;;13.34;48.81
71567;BME280;59403;47.456;19.120;2023-04-28T08:10:27;100938.22;;;13.17;50.06
71567;BME280;59403;47.456;19.120;2023-04-28T08:12:54;100938.09;;;13.26;49.48
71567;BME280;59403;47.456;19.120;2023-04-28T08:15:21;100942.56;;;13.26;47.21
71567;BME280;59403;47.456;19.120;2023-04-28T08:17:49;100944.72;;;13.72;47.74
71567;BME280;59403;47.456;19.120;2023-04-28T08:20:16;100947.06;;;13.91;47.23
71567;BME280;59403;47.456;19.120;2023-04-28T08:22:44;100936.06;;;14.02;48.08
71567;BME280;59403;47.456;19.120;2023-04-28T08:25:11;100932.56;;;14.18;47.77
71567;BME280;59403;47.456;19.120;2023-04-28T08:27:38;100925.91;;;14.06;49.96
71567;BME280;59403;47.456;19.120;2023-04-28T08:30:06;100918.28;;;14.11;43.82
71567;BME280;59403;47.456;19.120;2023-04-28T08:32:33;100921.44;;;14.14;46.77
71567;BME280;59403;47.456;19.120;2023-04-28T08:35:01;100918.44;;;14.57;45.68
71567;BME280;59403;47.456;19.120;2023-04-28T08:37:29;100916.09;;;14.62;43.96
71567;BME280;59403;47.456;19.120;2023-04-28T08:39:56;100915.84;;;14.88;45.14
71567;BME280;59403;47.456;19.120;2023-04-28T08:42:28;100913.00;;;14.90;43.36
71567;BME280;59403;47.456;19.120;2023-04-28T08:44:56;100903.44;;;14.48;42.25
71567;BME280;59403;47.456;19.120;2023-04-28T08:47:28;100909.97;;;14.93;43.64
71567;BME280;59403;47.456;19.120;2023-04-28T08:50:03;100915.63;;;15.36;42.40
71567;BME280;59403;47.456;19.120;2023-04-28T08:52:31;100912.13;;;15.44;43.09
71567;BME280;59403;47.456;19.120;2023-04-28T08:55:00;100909.78;;;15.02;40.82
71567;BME280;59403;47.456;19.120;2023-04-28T08:57:29;100905.00;;;15.28;41.69
71567;BME280;59403;47.456;19.120;2023-04-28T09:00:00;100899.06;;;15.18;40.35
71567;BME280;59403;47.456;19.120;2023-04-28T09:02:27;100903.56;;;15.48;40.27
71567;BME280;59403;47.456;19.120;2023-04-28T09:04:54;100902.88;;;15.16;40.89
71567;BME280;59403;47.456;19.120;2023-04-28T09:07:23;100908.28;;;15.08;41.08
71567;BME280;59403;47.456;19.120;2023-04-28T09:10:20;100904.34;;;15.26;40.07
71567;BME280;59403;47.456;19.120;2023-04-28T09:12:50;100911.06;;;15.14;40.47
71567;BME280;59403;47.456;19.120;2023-04-28T09:15:28;100909.47;;;15.36;39.21
71567;BME280;59403;47.456;19.120;2023-04-28T09:17:55;100905.44;;;15.48;40.07
71567;BME280;59403;47.456;19.120;2023-04-28T09:20:24;100903.81;;;15.31;39.52
71567;BME280;59403;47.456;19.120;2023-04-28T09:22:54;100895.53;;;15.18;37.32
71567;BME280;59403;47.456;19.120;2023-04-28T09:25:22;100902.59;;;15.49;41.35
71567;BME280;59403;47.456;19.120;2023-04-28T09:27:51;100894.16;;;15.30;39.48
71567;BME280;59403;47.456;19.120;2023-04-28T09:30:18;100899.78;;;15.43;39.34
71567;BME280;59403;47.456;19.120;2023-04-28T09:33:03;100898.53;;;15.53;39.87
71567;BME280;59403;47.456;19.120;2023-04-28T09:35:38;100905.19;;;15.57;41.14
71567;BME280;59403;47.456;19.120;2023-04-28T09:38:06;100902.16;;;16.06;40.62
71567;BME280;59403;47.456;19.120;2023-04-28T09:40:48;100899.31;;;16.07;38.06
71567;BME280;59403;47.456;19.120;2023-04-28T09:43:26;100894.03;;;15.99;37.38
71567;BME280;59403;47.456;19.120;2023-04-28T09:45:53;100892.50;;;16.05;38.93
71567;BME280;59403;47.456;19.120;2023-04-28T09:48:28;100894.87;;;16.14;37.50
71567;BME280;59403;47.456;19.120;2023-04-28T09:50:55;100882.84;;;15.81;37.17
71567;BME280;59403;47.456;19.120;2023-04-28T09:53:25;100889.22;;;16.17;37.91
71567;BME280;59403;47.456;19.120;2023-04-28T09:55:53;100886.44;;;16.25;36.30
71567;BME280;59403;47.456;19.120;2023-04-28T09:58:24;100870.09;;;16.06;36.59
71567;BME280;59403;47.456;19.120;2023-04-28T10:00:56;100862.78;;;16.22;37.95
71567;BME280;59403;47.456;19.120;2023-04-28T10:03:24;100851.44;;;16.20;36.73
71567;BME280;59403;47.456;19.120;2023-04-28T10:05:52;100864.53;;;16.44;39.22
71567;BME280;59403;47.456;19.120;2023-04-28T10:08:19;100856.63;;;16.36;38.31
71567;BME280;59403;47.456;19.120;2023-04-28T10:10:49;100859.12;;;16.52;37.13
71567;BME280;59403;47.456;19.120;2023-04-28T10:13:18;100856.19;;;16.62;37.60
71567;BME280;59403;47.456;19.120;2023-04-28T10:15:45;100857.47;;;16.80;37.99
71567;BME280;59403;47.456;19.120;2023-04-28T10:18:13;100850.81;;;16.91;37.67
71567;BME280;59403;47.456;19.120;2023-04-28T10:20:42;100845.91;;;17.09;37.36
71567;BME280;59403;47.456;19.120;2023-04-28T10:23:43;100836.19;;;17.08;36.39
71567;BME280;59403;47.456;19.120;2023-04-28T10:26:14;100835.03;;;16.96;36.94
71567;BME280;59403;47.456;19.120;2023-04-28T10:28:45;100829.69;;;16.96;37.51
71567;BME280;59403;47.456;19.120;2023-04-28T10:31:25;100826.78;;;16.76;37.33
71567;BME280;59403;47.456;19.120;2023-04-28T10:33:52;100815.25;;;17.12;37.34
71567;BME280;59403;47.456;19.120;2023-04-28T10:36:47;100813.37;;;17.27;37.12
71567;BME280;59403;47.456;19.120;2023-04-28T10:39:15;100811.66;;;17.40;35.37
71567;BME280;59403;47.456;19.120;2023-04-28T10:41:44;100807.38;;;17.46;36.00
71567;BME280;59403;47.456;19.120;2023-04-28T10:44:41;100806.19;;;17.69;35.26
71567;BME280;59403;47.456;19.120;2023-04-28T10:47:10;100798.03;;;17.56;34.13
71567;BME280;59403;47.456;19.120;2023-04-28T10:50:08;100800.28;;;17.53;36.04
71567;BME280;59403;47.456;19.120;2023-04-28T10:52:48;100780.22;;;17.28;35.42
71567;BME280;59403;47.456;19.120;2023-04-28T10:55:32;100788.56;;;17.39;36.41
71567;BME280;59403;47.456;19.120;2023-04-28T10:58:29;100790.69;;;17.44;37.54
71567;BME280;59403;47.456;19.120;2023-04-28T11:01:23;100778.94;;;17.66;38.47
71567;BME280;59403;47.456;19.120;2023-04-28T11:03:52;100775.03;;;17.89;36.48
71567;BME280;59403;47.456;19.120;2023-04-28T11:06:25;100775.13;;;17.54;36.88
71567;BME280;59403;47.456;19.120;2023-04-28T11:08:55;100767.78;;;17.41;37.22
71567;BME280;59403;47.456;19.120;2023-04-28T11:11:25;100764.84;;;18.06;36.50
71567;BME280;59403;47.456;19.120;2023-04-28T11:13:54;100758.87;;;18.10;36.36
71567;BME280;59403;47.456;19.120;2023-04-28T11:16:23;100744.28;;;17.58;37.21
71567;BME280;59403;47.456;19.120;2023-04-28T11:18:58;100758.16;;;17.26;37.10
71567;BME280;59403;47.456;19.120;2023-04-28T11:21:28;100757.66;;;17.16;38.42
71567;BME280;59403;47.456;19.120;2023-04-28T11:23:56;100754.38;;;17.41;38.13
71567;BME280;59403;47.456;19.120;2023-04-28T11:26:23;100750.78;;;17.49;37.63
71567;BME280;59403;47.456;19.120;2023-04-28T11:28:52;100751.25;;;17.17;38.91
71567;BME280;59403;47.456;19.120;2023-04-28T11:31:20;100756.72;;;16.87;38.27
71567;BME280;59403;47.456;19.120;2023-04-28T11:33:54;100742.97;;;16.90;39.01
71567;BME280;59403;47.456;19.120;2023-04-28T11:36:25;100750.38;;;16.88;39.49
71567;BME280;59403;47.456;19.120;2023-04-28T11:38:53;100750.69;;;16.64;40.52
71567;BME280;59403;47.456;19.120;2023-04-28T11:41:20;100745.44;;;16.42;39.66
71567;BME280;59403;47.456;19.120;2023-04-28T11:43:47;100749.94;;;16.41;38.82
71567;BME280;59403;47.456;19.120;2023-04-28T11:46:18;100759.53;;;16.36;38.83
71567;BME280;59403;47.456;19.120;2023-04-28T11:48:46;100751.34;;;16.23;38.85
71567;BME280;59403;47.456;19.120;2023-04-28T11:51:35;100746.34;;;16.20;38.70
71567;BME280;59403;47.456;19.120;2023-04-28T11:54:03;100752.06;;;16.17;39.51
71567;BME280;59403;47.456;19.120;2023-04-28T11:56:36;100737.31;;;16.35;41.02
71567;BME280;59403;47.456;19.120;2023-04-28T11:59:05;100739.72;;;16.59;40.52
71567;BME280;59403;47.456;19.120;2023-04-28T12:01:33;100737.34;;;16.50;40.59
71567;BME280;59403;47.456;19.120;2023-04-28T12:04:02;100738.53;;;16.47;40.36
71567;BME280;59403;47.456;19.120;2023-04-28T12:06:29;100730.16;;;16.50;39.80
71567;BME280;59403;47.456;19.120;2023-04-28T12:08:58;100729.97;;;16.52;38.86
71567;BME280;59403;47.456;19.120;2023-04-28T12:11:29;100723.22;;;16.41;41.03
71567;BME280;59403;47.456;19.120;2023-04-28T12:14:03;100716.59;;;16.08;40.64
71567;BME280;59403;47.456;19.120;2023-04-28T12:16:41;100728.22;;;15.86;42.01
71567;BME280;59403;47.456;19.120;2023-04-28T12:19:13;100713.66;;;15.88;43.23
71567;BME280;59403;47.456;19.120;2023-04-28T12:21:41;100713.91;;;15.93;43.65
71567;BME280;59403;47.456;19.120;2023-04-28T12:24:17;100714.31;;;16.05;42.49
71567;BME280;59403;47.456;19.120;2023-04-28T12:26:44;100711.72;;;16.12;43.60
71567;BME280;59403;47.456;19.120;2023-04-28T12:29:37;100707.69;;;16.16;42.93
71567;BME280;59403;47.456;19.120;2023-04-28T12:32:05;100712.44;;;16.20;41.92
71567;BME280;59403;47.456;19.120;2023-04-28T12:34:32;100713.94;;;16.23;41.90
71567;BME280;59403;47.456;19.120;2023-04-28T12:37:00;100705.28;;;16.06;41.38
71567;BME280;59403;47.456;19.120;2023-04-28T12:39:32;100692.09;;;16.05;41.05
71567;BME280;59403;47.456;19.120;2023-04-28T12:41:59;100693.47;;;16.15;41.39
71567;BME280;59403;47.456;19.120;2023-04-28T12:44:27;100681.59;;;16.03;41.71
71567;BME280;59403;47.456;19.120;2023-04-28T12:47:00;100687.41;;;16.07;42.97
71567;BME280;59403;47.456;19.120;2023-04-28T12:49:27;100679.19;;;16.08;42.34
71567;BME280;59403;47.456;19.120;2023-04-28T12:51:57;100667.13;;;16.12;41.55
71567;BME280;59403;47.456;19.120;2023-04-28T12:54:24;100666.38;;;16.33;43.68